createdAt,value
2019-03-31T00:01:35.633Z,65.50
2019-03-31T00:04:08.771Z,64.95
2019-03-31T00:06:39.190Z,64.97
2019-03-31T00:09:11.979Z,67.12
2019-03-31T00:11:45.520Z,69.15
2019-03-31T00:14:17.942Z,66.77
2019-03-31T00:16:52.196Z,66.10
2019-03-31T00:19:22.176Z,66.10
2019-03-31T00:21:52.496Z,65.25
2019-03-31T00:24:24.970Z,66.07
2019-03-31T00:26:56.421Z,111.10
2019-03-31T00:29:28.619Z,69.07
2019-03-31T00:31:59.732Z,68.57
2019-03-31T00:34:32.284Z,74.25
2019-03-31T00:37:02.929Z,75.92
2019-03-31T00:39:36.824Z,76.67
2019-03-31T00:42:07.264Z,84.17
2019-03-31T00:44:38.915Z,88.65
2019-03-31T00:47:09.342Z,92.00
2019-03-31T00:49:42.512Z,85.95
2019-03-31T00:52:13.992Z,87.70
2019-03-31T00:54:45.092Z,82.53
2019-03-31T00:57:17.396Z,80.12
2019-03-31T00:59:50.275Z,75.62
2019-03-31T01:02:23.052Z,71.92
2019-03-31T01:04:54.094Z,73.22
2019-03-31T01:07:26.773Z,71.53
2019-03-31T01:09:57.690Z,75.57
2019-03-31T01:12:28.344Z,70.62
2019-03-31T01:14:59.481Z,70.37
2019-03-31T01:17:30.728Z,72.50
2019-03-31T01:20:01.849Z,70.15
2019-03-31T01:22:32.807Z,68.52
2019-03-31T01:25:09.169Z,69.05
2019-03-31T01:27:41.983Z,69.37
2019-03-31T01:30:13.415Z,68.02
2019-03-31T01:32:44.341Z,65.87
2019-03-31T01:35:17.324Z,67.22
2019-03-31T01:37:48.567Z,68.00
2019-03-31T01:40:19.303Z,67.70
2019-03-31T01:42:51.090Z,66.25
2019-03-31T01:45:22.710Z,70.67
2019-03-31T01:47:53.300Z,76.05
2019-03-31T01:50:25.097Z,82.47
2019-03-31T01:52:55.621Z,80.28
2019-03-31T01:55:27.082Z,71.65
2019-03-31T01:57:58.707Z,70.52
2019-03-31T02:03:11.866Z,68.65
2019-03-31T02:05:43.115Z,69.15
2019-03-31T02:08:13.641Z,68.05
2019-03-31T02:10:44.367Z,66.60
2019-03-31T02:13:16.008Z,65.20
2019-03-31T02:15:47.510Z,65.62
2019-03-31T02:18:19.129Z,65.70
2019-03-31T02:20:50.659Z,68.50
2019-03-31T02:23:22.328Z,66.57
2019-03-31T02:25:55.614Z,72.78
2019-03-31T02:28:27.271Z,77.53
2019-03-31T02:30:58.816Z,90.07
2019-03-31T02:33:30.180Z,86.72
2019-03-31T02:36:02.144Z,96.90
2019-03-31T02:38:33.371Z,95.60
2019-03-31T02:41:05.448Z,90.07
2019-03-31T02:43:37.110Z,81.22
2019-03-31T02:46:07.568Z,72.90
2019-03-31T02:48:38.368Z,86.37
2019-03-31T02:51:10.024Z,83.80
2019-03-31T02:53:41.444Z,81.12
2019-03-31T02:56:11.890Z,84.67
2019-03-31T02:58:45.087Z,82.27
2019-03-31T03:01:16.943Z,79.42
2019-03-31T03:03:47.985Z,84.15
2019-03-31T03:06:24.042Z,83.33
2019-03-31T03:08:57.759Z,79.90
2019-03-31T03:11:27.956Z,83.10
2019-03-31T03:13:59.552Z,72.40
2019-03-31T03:16:30.936Z,72.78
2019-03-31T03:19:02.724Z,71.28
2019-03-31T03:21:34.638Z,69.12
2019-03-31T03:24:05.509Z,67.20
2019-03-31T03:26:36.250Z,68.37
2019-03-31T03:29:07.537Z,69.37
2019-03-31T03:31:38.847Z,67.10
2019-03-31T03:34:09.580Z,69.10
2019-03-31T03:36:43.314Z,67.37
2019-03-31T03:39:13.830Z,70.30
2019-03-31T03:41:44.738Z,71.42
2019-03-31T03:44:16.779Z,72.30
2019-03-31T03:46:48.148Z,74.60
2019-03-31T03:49:20.419Z,77.25
2019-03-31T03:51:51.762Z,78.55
2019-03-31T03:54:23.312Z,79.90
2019-03-31T03:56:53.567Z,80.60
2019-03-31T03:59:24.493Z,77.87
2019-03-31T04:01:57.356Z,79.40
2019-03-31T04:04:28.185Z,79.17
2019-03-31T04:06:59.738Z,83.30
2019-03-31T04:09:30.674Z,80.47
2019-03-31T04:12:02.022Z,77.50
2019-03-31T04:14:33.765Z,81.08
2019-03-31T04:17:05.395Z,82.53
2019-03-31T04:19:35.712Z,80.03
2019-03-31T04:22:06.506Z,79.70
2019-03-31T04:24:37.215Z,81.17
2019-03-31T04:27:07.953Z,81.87
2019-03-31T04:29:38.603Z,83.65
2019-03-31T04:32:09.277Z,82.47
2019-03-31T04:34:42.505Z,81.95
2019-03-31T04:37:13.034Z,85.05
2019-03-31T04:39:44.145Z,80.77
2019-03-31T04:42:15.319Z,82.57
2019-03-31T04:44:46.803Z,83.70
2019-03-31T04:47:17.243Z,83.80
2019-03-31T04:49:47.926Z,85.47
2019-03-31T04:52:19.277Z,85.80
2019-03-31T04:54:51.232Z,83.78
2019-03-31T04:57:21.759Z,82.12
2019-03-31T04:59:52.732Z,83.35
2019-03-31T05:02:26.909Z,80.92
2019-03-31T05:04:55.391Z,84.60
2019-03-31T05:07:26.119Z,80.12
2019-03-31T05:09:56.546Z,81.57
2019-03-31T05:12:27.279Z,82.10
2019-03-31T05:14:58.011Z,81.97
2019-03-31T05:17:28.747Z,82.50
2019-03-31T05:19:59.274Z,82.55
2019-03-31T05:22:30.515Z,87.78
2019-03-31T05:25:04.910Z,84.42
2019-03-31T05:27:38.122Z,81.12
2019-03-31T05:30:09.640Z,83.17
2019-03-31T05:32:43.608Z,81.92
2019-03-31T05:35:14.520Z,80.65
2019-03-31T05:37:51.345Z,80.75
2019-03-31T05:40:19.362Z,78.52
2019-03-31T05:42:52.617Z,79.25
2019-03-31T05:45:24.519Z,79.95
2019-03-31T05:47:54.831Z,77.50
2019-03-31T05:50:26.489Z,80.65
2019-03-31T05:52:57.431Z,81.42
2019-03-31T05:55:28.299Z,76.80
2019-03-31T05:58:00.842Z,75.75
2019-03-31T06:00:34.240Z,75.78
2019-03-31T06:03:05.064Z,74.03
2019-03-31T06:05:35.804Z,76.95
2019-03-31T06:08:06.438Z,76.62
2019-03-31T06:10:37.167Z,80.53
2019-03-31T06:13:10.080Z,77.12
2019-03-31T06:15:44.181Z,75.62
2019-03-31T06:18:15.306Z,72.53
2019-03-31T06:20:46.353Z,72.58
2019-03-31T06:23:16.462Z,73.33
2019-03-31T06:25:49.139Z,75.30
2019-03-31T06:28:22.662Z,72.50
2019-03-31T06:30:53.673Z,75.22
2019-03-31T06:33:26.641Z,71.92
2019-03-31T06:35:58.422Z,67.87
2019-03-31T06:38:29.052Z,66.60
2019-03-31T06:41:01.625Z,65.17
2019-03-31T06:43:35.629Z,64.15
2019-03-31T06:46:08.409Z,41.58
2019-03-31T06:48:40.665Z,38.48
2019-03-31T06:51:12.640Z,37.90
2019-03-31T06:53:49.208Z,38.45
2019-03-31T06:58:49.962Z,38.85
2019-03-31T07:01:22.122Z,41.50
2019-03-31T07:03:52.918Z,38.75
2019-03-31T07:06:25.556Z,37.58
2019-03-31T07:08:56.602Z,41.18
2019-03-31T07:11:27.435Z,39.60
2019-03-31T07:14:00.202Z,40.33
2019-03-31T07:16:30.536Z,39.67
2019-03-31T07:19:02.759Z,38.67
2019-03-31T07:21:33.311Z,39.27
2019-03-31T07:24:03.985Z,38.92
2019-03-31T07:26:36.414Z,37.95
2019-03-31T07:29:07.246Z,38.15
2019-03-31T07:31:39.179Z,36.45
2019-03-31T07:34:11.026Z,35.92
2019-03-31T07:36:43.332Z,35.23
2019-03-31T07:39:14.109Z,36.75
2019-03-31T07:41:46.885Z,34.03
2019-03-31T07:44:17.787Z,34.80
2019-03-31T07:46:50.183Z,34.88
2019-03-31T07:51:52.954Z,32.75
2019-03-31T07:54:24.404Z,33.28
2019-03-31T07:56:54.935Z,32.93
2019-03-31T07:59:26.256Z,32.17
2019-03-31T08:01:57.217Z,30.20
2019-03-31T08:04:28.200Z,32.00
2019-03-31T08:06:59.003Z,30.68
2019-03-31T08:09:31.249Z,33.00
2019-03-31T08:12:03.016Z,31.25
2019-03-31T08:14:33.636Z,30.05
2019-03-31T08:17:04.247Z,34.13
2019-03-31T08:19:36.194Z,32.35
2019-03-31T08:22:06.857Z,31.85
2019-03-31T08:24:43.549Z,31.75
2019-03-31T08:27:15.184Z,29.77
2019-03-31T08:29:51.992Z,31.23
2019-03-31T08:32:18.597Z,30.40
2019-03-31T08:34:49.329Z,32.08
2019-03-31T08:37:20.914Z,30.45
2019-03-31T08:39:51.409Z,31.95
2019-03-31T08:42:22.540Z,34.45
2019-03-31T08:44:54.913Z,31.37
2019-03-31T08:47:26.986Z,30.72
2019-03-31T08:50:01.577Z,31.15
2019-03-31T08:52:31.713Z,29.60
2019-03-31T08:55:02.356Z,28.20
2019-03-31T08:57:33.827Z,26.60
2019-03-31T09:00:07.790Z,29.02
2019-03-31T09:02:38.343Z,29.42
2019-03-31T09:05:10.303Z,27.82
2019-03-31T09:07:42.238Z,27.02
2019-03-31T09:10:12.593Z,28.20
2019-03-31T09:12:44.017Z,29.27
2019-03-31T09:15:15.861Z,29.05
2019-03-31T09:17:47.136Z,28.15
2019-03-31T09:20:18.186Z,23.77
2019-03-31T09:22:50.755Z,25.10
2019-03-31T09:25:21.921Z,24.80
2019-03-31T09:27:53.141Z,26.65
2019-03-31T09:30:23.874Z,25.37
2019-03-31T09:32:54.614Z,23.92
2019-03-31T09:35:26.710Z,25.52
2019-03-31T09:37:56.980Z,24.30
2019-03-31T09:40:27.902Z,24.82
2019-03-31T09:42:58.665Z,25.72
2019-03-31T09:45:29.393Z,25.02
2019-03-31T09:48:01.771Z,26.12
2019-03-31T09:50:33.318Z,23.62
2019-03-31T09:53:04.175Z,26.33
2019-03-31T09:55:34.893Z,24.75
2019-03-31T09:58:05.627Z,23.38
2019-03-31T10:00:49.893Z,20.70
2019-03-31T10:03:20.988Z,22.55
2019-03-31T10:05:51.339Z,21.77
2019-03-31T10:08:24.029Z,22.52
2019-03-31T10:10:56.660Z,23.55
2019-03-31T10:13:27.868Z,24.25
2019-03-31T10:16:02.876Z,23.50
2019-03-31T10:18:33.597Z,23.12
2019-03-31T10:21:04.739Z,19.87
2019-03-31T10:23:35.372Z,19.65
2019-03-31T10:26:07.629Z,21.12
2019-03-31T10:28:38.376Z,20.55
2019-03-31T10:31:11.355Z,20.50
2019-03-31T10:33:44.033Z,19.65
2019-03-31T10:36:15.178Z,19.27
2019-03-31T10:38:47.759Z,18.73
2019-03-31T10:41:18.516Z,19.02
2019-03-31T10:43:51.318Z,19.85
2019-03-31T10:46:21.929Z,20.55
2019-03-31T10:48:53.272Z,22.27
2019-03-31T10:51:25.926Z,22.82
2019-03-31T10:53:56.651Z,23.77
2019-03-31T10:56:28.801Z,24.00
2019-03-31T10:58:59.445Z,23.73
2019-03-31T11:01:30.080Z,23.85
2019-03-31T11:04:02.550Z,26.65
2019-03-31T11:06:32.872Z,23.32
2019-03-31T11:09:05.154Z,22.90
2019-03-31T11:11:37.003Z,25.68
2019-03-31T11:14:07.735Z,23.75
2019-03-31T11:16:38.570Z,24.35
2019-03-31T11:19:11.347Z,25.57
2019-03-31T11:21:45.560Z,24.98
2019-03-31T11:24:16.297Z,26.27
2019-03-31T11:26:47.651Z,25.77
2019-03-31T11:29:18.886Z,27.22
2019-03-31T11:31:49.911Z,26.33
2019-03-31T11:34:22.768Z,26.93
2019-03-31T11:36:56.309Z,28.30
2019-03-31T11:39:27.040Z,28.15
2019-03-31T11:41:58.903Z,28.83
2019-03-31T11:44:29.450Z,31.00
2019-03-31T11:47:00.279Z,29.63
2019-03-31T11:49:32.454Z,27.52
2019-03-31T11:52:02.808Z,27.90
2019-03-31T11:54:35.260Z,29.12
2019-03-31T11:57:05.754Z,27.32
2019-03-31T11:59:37.819Z,27.37
2019-03-31T12:02:08.547Z,26.45
2019-03-31T12:04:40.719Z,28.85
2019-03-31T12:07:12.143Z,28.27
2019-03-31T12:09:42.668Z,26.33
2019-03-31T12:12:13.997Z,25.48
2019-03-31T12:14:59.529Z,25.95
2019-03-31T12:17:18.573Z,24.45
2019-03-31T12:19:52.177Z,22.77
2019-03-31T12:22:26.777Z,21.25
2019-03-31T12:24:58.144Z,19.48
2019-03-31T12:27:30.314Z,20.45
2019-03-31T12:30:01.455Z,18.67
2019-03-31T12:32:34.031Z,16.05
2019-03-31T12:35:09.338Z,16.93
2019-03-31T12:37:43.045Z,16.30
2019-03-31T12:40:15.912Z,16.20
2019-03-31T12:42:49.644Z,14.00
2019-03-31T12:45:20.086Z,13.45
2019-03-31T12:47:51.056Z,14.63
2019-03-31T12:50:21.752Z,14.98
2019-03-31T12:52:52.412Z,16.12
2019-03-31T12:55:25.051Z,16.23
2019-03-31T12:57:57.031Z,15.78
2019-03-31T13:00:29.474Z,15.45
2019-03-31T13:03:02.590Z,16.62
2019-03-31T13:05:33.316Z,15.75
2019-03-31T13:08:04.053Z,14.75
2019-03-31T13:10:35.213Z,13.90
2019-03-31T13:13:05.956Z,14.85
2019-03-31T13:15:37.450Z,14.18
2019-03-31T13:18:08.005Z,15.43
2019-03-31T13:20:38.737Z,16.42
2019-03-31T13:23:09.470Z,18.15
2019-03-31T13:25:40.206Z,16.52
2019-03-31T13:28:12.985Z,16.75
2019-03-31T13:30:44.635Z,20.10
2019-03-31T13:33:16.402Z,20.37
2019-03-31T13:35:48.156Z,19.40
2019-03-31T13:38:19.810Z,17.37
2019-03-31T13:40:50.720Z,16.70
2019-03-31T13:43:21.478Z,16.42
2019-03-31T13:45:52.824Z,17.85
2019-03-31T13:48:23.966Z,18.25
2019-03-31T13:50:54.391Z,18.17
2019-03-31T13:53:25.943Z,17.42
2019-03-31T13:55:57.711Z,16.70
2019-03-31T13:58:28.621Z,15.55
2019-03-31T14:01:02.349Z,17.37
2019-03-31T14:03:33.077Z,17.15
2019-03-31T14:06:05.069Z,17.92
2019-03-31T14:08:36.581Z,22.05
2019-03-31T14:11:08.317Z,18.10
2019-03-31T14:13:39.895Z,17.65
2019-03-31T14:16:11.798Z,18.48
2019-03-31T14:18:43.505Z,17.23
2019-03-31T14:21:16.595Z,16.65
2019-03-31T14:23:47.941Z,18.37
2019-03-31T14:26:19.902Z,16.95
2019-03-31T14:28:50.429Z,20.20
2019-03-31T14:31:21.064Z,17.90
2019-03-31T14:33:51.798Z,17.05
2019-03-31T14:36:24.067Z,18.35
2019-03-31T14:38:54.901Z,17.15
2019-03-31T14:41:28.199Z,14.18
2019-03-31T14:43:59.232Z,12.58
2019-03-31T14:46:32.962Z,13.40
2019-03-31T14:49:05.412Z,11.73
2019-03-31T14:51:36.755Z,11.83
2019-03-31T14:54:07.489Z,12.00
2019-03-31T14:56:39.246Z,11.12
2019-03-31T14:59:10.385Z,14.38
2019-03-31T15:01:43.681Z,15.60
2019-03-31T15:04:15.539Z,11.97
2019-03-31T15:06:46.886Z,13.78
2019-03-31T15:09:18.135Z,15.72
2019-03-31T15:11:48.963Z,16.82
2019-03-31T15:14:19.763Z,16.95
2019-03-31T15:16:52.274Z,17.07
2019-03-31T15:19:22.574Z,17.52
2019-03-31T15:21:53.326Z,17.37
2019-03-31T15:24:26.210Z,16.77
2019-03-31T15:26:58.457Z,15.40
2019-03-31T15:29:29.646Z,15.40
2019-03-31T15:32:00.763Z,19.32
2019-03-31T15:34:34.106Z,21.07
2019-03-31T15:37:05.244Z,26.60
2019-03-31T15:39:38.618Z,26.70
2019-03-31T15:42:09.027Z,26.85
2019-03-31T15:44:39.751Z,28.10
2019-03-31T15:47:10.707Z,23.52
2019-03-31T15:49:41.525Z,20.82
2019-03-31T15:52:14.976Z,20.80
2019-03-31T15:54:46.164Z,19.02
2019-03-31T15:57:18.093Z,21.35
2019-03-31T15:59:50.395Z,21.12
2019-03-31T16:02:24.542Z,21.73
2019-03-31T16:04:55.555Z,22.50
2019-03-31T16:07:26.858Z,25.82
2019-03-31T16:09:58.350Z,23.30
2019-03-31T16:12:30.445Z,24.90
2019-03-31T16:15:00.829Z,29.02
2019-03-31T16:17:37.916Z,28.20
2019-03-31T16:20:08.342Z,26.12
2019-03-31T16:22:38.978Z,26.07
2019-03-31T16:25:11.899Z,26.40
2019-03-31T16:27:42.785Z,29.25
2019-03-31T16:30:13.521Z,27.75
2019-03-31T16:32:44.179Z,31.00
2019-03-31T16:35:15.209Z,27.60
2019-03-31T16:37:45.528Z,28.92
2019-03-31T16:40:16.448Z,30.70
2019-03-31T16:42:48.105Z,33.15
2019-03-31T16:45:19.143Z,30.88
2019-03-31T16:47:50.903Z,35.20
2019-03-31T16:50:23.169Z,39.67
2019-03-31T16:52:54.109Z,44.20
2019-03-31T16:55:25.041Z,46.58
2019-03-31T16:57:56.898Z,47.75
2019-03-31T17:00:27.981Z,47.30
2019-03-31T17:02:58.477Z,46.13
2019-03-31T17:05:31.454Z,43.60
2019-03-31T17:08:03.464Z,42.55
2019-03-31T17:10:34.660Z,43.20
2019-03-31T17:13:06.009Z,39.83
2019-03-31T17:15:37.530Z,41.02
2019-03-31T17:18:08.292Z,40.15
2019-03-31T17:20:41.587Z,38.88
2019-03-31T17:23:14.984Z,34.60
2019-03-31T17:25:47.232Z,33.33
2019-03-31T17:28:18.289Z,31.62
2019-03-31T17:30:48.405Z,32.40
2019-03-31T17:33:21.089Z,29.60
2019-03-31T17:35:52.124Z,30.43
2019-03-31T17:38:24.504Z,31.00
2019-03-31T17:40:56.046Z,29.63
2019-03-31T17:43:26.581Z,29.77
2019-03-31T17:46:01.081Z,29.53
2019-03-31T17:48:33.467Z,26.87
2019-03-31T17:51:05.536Z,24.98
2019-03-31T17:53:37.299Z,26.85
2019-03-31T17:56:10.373Z,25.85
2019-03-31T17:58:44.076Z,26.35
2019-03-31T18:01:15.039Z,27.30
2019-03-31T18:03:46.244Z,27.02
2019-03-31T18:06:17.293Z,29.85
2019-03-31T18:08:48.238Z,26.95
2019-03-31T18:11:20.263Z,25.70
2019-03-31T18:13:50.606Z,24.65
2019-03-31T18:16:21.611Z,25.90
2019-03-31T18:18:53.929Z,25.12
2019-03-31T18:21:27.358Z,24.43
2019-03-31T18:23:58.880Z,24.80
2019-03-31T18:26:30.465Z,25.55
2019-03-31T18:29:02.387Z,25.02
2019-03-31T18:31:32.932Z,26.70
2019-03-31T18:34:07.111Z,26.07
2019-03-31T18:36:39.177Z,27.75
2019-03-31T18:39:10.543Z,26.75
2019-03-31T18:41:42.401Z,23.80
2019-03-31T18:44:14.876Z,24.52
2019-03-31T18:46:45.615Z,27.15
2019-03-31T18:49:21.698Z,27.67
2019-03-31T18:51:52.488Z,25.80
2019-03-31T18:54:24.767Z,26.70
2019-03-31T18:57:03.798Z,27.22
2019-03-31T18:59:42.138Z,28.10
2019-03-31T19:02:15.809Z,26.90
2019-03-31T19:04:51.007Z,29.45
2019-03-31T19:07:23.623Z,31.80
2019-03-31T19:09:59.269Z,29.57
2019-03-31T19:12:32.255Z,27.65
2019-03-31T19:15:07.909Z,29.30
2019-03-31T19:17:55.458Z,32.45
2019-03-31T19:20:31.086Z,27.05
2019-03-31T19:23:21.673Z,27.35
2019-03-31T19:25:55.477Z,32.38
2019-03-31T19:28:27.984Z,29.87
2019-03-31T19:31:06.818Z,27.75
2019-03-31T19:33:42.011Z,35.68
2019-03-31T19:36:23.290Z,32.40
2019-03-31T19:39:00.678Z,33.65
2019-03-31T19:41:36.838Z,31.27
2019-03-31T19:44:28.153Z,33.20
2019-03-31T19:47:03.700Z,31.23
2019-03-31T19:49:42.523Z,37.63
2019-03-31T19:52:17.963Z,29.52
2019-03-31T19:55:03.552Z,32.40
2019-03-31T19:57:52.911Z,30.88
2019-03-31T20:00:40.959Z,23.92
2019-03-31T20:03:25.311Z,25.12
2019-03-31T20:08:53.697Z,32.70
2019-03-31T20:11:25.877Z,33.60
2019-03-31T20:14:02.081Z,35.83
2019-03-31T20:16:49.754Z,34.43
2019-03-31T20:19:23.051Z,34.38
2019-03-31T20:24:31.063Z,36.13
2019-03-31T20:27:08.567Z,34.15
2019-03-31T20:29:57.824Z,35.70
2019-03-31T20:32:32.746Z,36.68
2019-03-31T20:35:23.462Z,39.08
2019-03-31T20:38:07.918Z,35.03
2019-03-31T20:40:41.203Z,37.70
2019-03-31T20:43:16.648Z,36.28
2019-03-31T20:45:50.450Z,36.68
2019-03-31T20:48:20.774Z,35.17
2019-03-31T20:50:52.269Z,38.48
2019-03-31T20:53:24.183Z,35.88
2019-03-31T20:55:55.006Z,38.65
2019-03-31T20:58:25.713Z,36.77
2019-03-31T21:00:58.738Z,36.17
2019-03-31T21:03:29.877Z,36.25
2019-03-31T21:06:01.124Z,35.40
2019-03-31T21:08:31.828Z,36.42
2019-03-31T21:11:05.353Z,40.55
2019-03-31T21:13:35.675Z,36.33
2019-03-31T21:16:07.433Z,36.33
2019-03-31T21:18:38.574Z,35.83
2019-03-31T21:21:12.176Z,36.03
2019-03-31T21:23:43.128Z,37.08
2019-03-31T21:26:13.906Z,35.85
2019-03-31T21:28:46.934Z,35.10
2019-03-31T21:31:19.498Z,35.38
2019-03-31T21:33:50.751Z,37.03
2019-03-31T21:36:23.435Z,34.53
2019-03-31T21:38:55.263Z,32.95
2019-03-31T21:41:26.973Z,36.40
2019-03-31T21:43:57.674Z,24.55
2019-03-31T21:46:28.712Z,21.75
2019-03-31T21:49:01.187Z,24.65
2019-03-31T21:51:34.077Z,21.82
2019-03-31T21:54:05.317Z,20.50
2019-03-31T21:56:36.151Z,20.57
2019-03-31T21:59:06.982Z,19.25
2019-03-31T22:01:37.714Z,19.42
2019-03-31T22:04:11.318Z,20.68
2019-03-31T22:06:44.103Z,19.30
2019-03-31T22:09:15.241Z,19.10
2019-03-31T22:11:48.326Z,19.92
2019-03-31T22:14:21.623Z,20.45
2019-03-31T22:16:52.840Z,19.70
2019-03-31T22:19:25.844Z,20.00
2019-03-31T22:21:56.277Z,21.00
2019-03-31T22:24:28.543Z,20.50
2019-03-31T22:26:58.966Z,20.72
2019-03-31T22:29:29.938Z,21.07
2019-03-31T22:32:01.153Z,22.25
2019-03-31T22:34:32.600Z,21.95
2019-03-31T22:37:02.965Z,22.20
2019-03-31T22:39:35.506Z,23.02
2019-03-31T22:42:08.280Z,22.25
2019-03-31T22:44:39.229Z,22.27
2019-03-31T22:47:09.743Z,22.73
2019-03-31T22:49:40.390Z,24.63
2019-03-31T22:52:11.517Z,24.00
2019-03-31T22:54:42.764Z,23.75
2019-03-31T22:57:13.090Z,23.32
2019-03-31T22:59:46.988Z,23.00
2019-03-31T23:02:17.732Z,21.02
2019-03-31T23:04:48.367Z,21.62
2019-03-31T23:07:21.034Z,22.37
2019-03-31T23:09:52.511Z,22.00
2019-03-31T23:12:23.238Z,22.07
2019-03-31T23:14:54.664Z,22.48
2019-03-31T23:17:24.993Z,21.57
2019-03-31T23:19:56.867Z,21.57
2019-03-31T23:22:27.826Z,20.05
2019-03-31T23:24:59.438Z,20.37
2019-03-31T23:27:30.205Z,21.97
2019-03-31T23:30:04.794Z,20.60
2019-03-31T23:32:37.062Z,20.82
2019-03-31T23:35:07.896Z,21.42
2019-03-31T23:37:39.551Z,22.22
2019-03-31T23:40:10.178Z,22.45
2019-03-31T23:42:42.765Z,26.05
2019-03-31T23:45:14.613Z,25.30
2019-03-31T23:47:46.162Z,27.65
2019-03-31T23:50:16.516Z,28.65
2019-03-31T23:52:47.733Z,29.40
2019-03-31T23:55:19.083Z,28.75
2019-03-31T23:57:49.964Z,29.90
